sensor_id;sensor_type;location;lat;lon;timestamp;pressure;altitude;pressure_sealevel;temperature;humidity
21545;BME280;10933;50.754;11.508;2024-01-30T00:01:45;101007.78;;;-0.72;100.00
21545;BME280;10933;50.754;11.508;2024-01-30T00:04:11;100999.56;;;-0.69;100.00
21545;BME280;10933;50.754;11.508;2024-01-30T00:06:37;101000.69;;;-0.71;100.00
21545;BME280;10933;50.754;11.508;2024-01-30T00:09:03;100994.38;;;-0.61;100.00
21545;BME280;10933;50.754;11.508;2024-01-30T00:11:31;101003.16;;;-0.60;100.00
21545;BME280;10933;50.754;11.508;2024-01-30T00:13:57;101004.66;;;-0.48;100.00
21545;BME280;10933;50.754;11.508;2024-01-30T00:16:24;101002.63;;;-0.26;100.00
21545;BME280;10933;50.754;11.508;2024-01-30T00:18:52;101003.38;;;-0.34;100.00
21545;BME280;10933;50.754;11.508;2024-01-30T00:21:18;100995.56;;;-0.36;100.00
21545;BME280;10933;50.754;11.508;2024-01-30T00:23:45;100995.00;;;-0.39;100.00
21545;BME280;10933;50.754;11.508;2024-01-30T00:26:11;101001.69;;;-0.35;100.00
21545;BME280;10933;50.754;11.508;2024-01-30T00:28:38;100989.84;;;-0.41;100.00
21545;BME280;10933;50.754;11.508;2024-01-30T00:31:04;100995.00;;;-0.39;100.00
21545;BME280;10933;50.754;11.508;2024-01-30T00:33:31;100990.13;;;-0.34;100.00
21545;BME280;10933;50.754;11.508;2024-01-30T00:35:57;100984.66;;;-0.33;100.00
21545;BME280;10933;50.754;11.508;2024-01-30T00:38:23;100980.75;;;-0.38;100.00
21545;BME280;10933;50.754;11.508;2024-01-30T00:40:49;100978.25;;;-0.40;100.00
21545;BME280;10933;50.754;11.508;2024-01-30T00:43:16;100977.84;;;-0.35;100.00
21545;BME280;10933;50.754;11.508;2024-01-30T00:45:44;100969.75;;;-0.43;100.00
21545;BME280;10933;50.754;11.508;2024-01-30T00:48:10;100954.41;;;-0.40;100.00
21545;BME280;10933;50.754;11.508;2024-01-30T00:50:36;100966.53;;;-0.37;100.00
21545;BME280;10933;50.754;11.508;2024-01-30T00:53:02;100957.00;;;-0.30;100.00
21545;BME280;10933;50.754;11.508;2024-01-30T00:55:28;100949.66;;;-0.09;100.00
21545;BME280;10933;50.754;11.508;2024-01-30T00:57:54;100947.78;;;-0.26;100.00
21545;BME280;10933;50.754;11.508;2024-01-30T01:00:20;100950.00;;;-0.21;100.00
21545;BME280;10933;50.754;11.508;2024-01-30T01:02:47;100940.94;;;-0.01;100.00
21545;BME280;10933;50.754;11.508;2024-01-30T01:05:13;100956.09;;;-0.11;100.00
21545;BME280;10933;50.754;11.508;2024-01-30T01:07:39;100951.56;;;-0.01;100.00
21545;BME280;10933;50.754;11.508;2024-01-30T01:10:06;100959.31;;;-0.17;100.00
21545;BME280;10933;50.754;11.508;2024-01-30T01:12:32;100955.84;;;-0.18;100.00
21545;BME280;10933;50.754;11.508;2024-01-30T01:14:58;100954.97;;;-0.09;100.00
21545;BME280;10933;50.754;11.508;2024-01-30T01:17:24;100961.94;;;-0.08;100.00
21545;BME280;10933;50.754;11.508;2024-01-30T01:19:50;100962.44;;;-0.22;100.00
21545;BME280;10933;50.754;11.508;2024-01-30T01:22:16;100953.19;;;-0.18;100.00
21545;BME280;10933;50.754;11.508;2024-01-30T01:24:44;100946.41;;;-0.30;100.00
21545;BME280;10933;50.754;11.508;2024-01-30T01:27:10;100945.84;;;-0.24;100.00
21545;BME280;10933;50.754;11.508;2024-01-30T01:29:36;100951.31;;;-0.08;100.00
21545;BME280;10933;50.754;11.508;2024-01-30T01:32:02;100946.84;;;-0.07;100.00
21545;BME280;10933;50.754;11.508;2024-01-30T01:34:28;100949.53;;;0.11;100.00
21545;BME280;10933;50.754;11.508;2024-01-30T01:36:54;100950.03;;;-0.04;100.00
21545;BME280;10933;50.754;11.508;2024-01-30T01:39:22;100955.94;;;-0.10;100.00
21545;BME280;10933;50.754;11.508;2024-01-30T01:41:48;100951.66;;;-0.20;100.00
21545;BME280;10933;50.754;11.508;2024-01-30T01:44:14;100955.72;;;-0.26;100.00
21545;BME280;10933;50.754;11.508;2024-01-30T01:46:41;100944.75;;;-0.31;100.00
21545;BME280;10933;50.754;11.508;2024-01-30T01:49:08;100932.34;;;-0.40;100.00
21545;BME280;10933;50.754;11.508;2024-01-30T01:51:36;100929.28;;;-0.36;100.00
21545;BME280;10933;50.754;11.508;2024-01-30T01:54:04;100925.00;;;-0.46;100.00
21545;BME280;10933;50.754;11.508;2024-01-30T01:56:31;100913.56;;;-0.47;100.00
21545;BME280;10933;50.754;11.508;2024-01-30T01:59:04;100909.66;;;-0.52;100.00
21545;BME280;10933;50.754;11.508;2024-01-30T02:01:32;100902.69;;;-0.53;100.00
21545;BME280;10933;50.754;11.508;2024-01-30T02:03:59;100891.22;;;-0.44;100.00
21545;BME280;10933;50.754;11.508;2024-01-30T02:06:26;100924.91;;;-0.64;100.00
21545;BME280;10933;50.754;11.508;2024-01-30T02:08:52;100926.03;;;-0.67;100.00
21545;BME280;10933;50.754;11.508;2024-01-30T02:11:19;100926.22;;;-0.78;100.00
21545;BME280;10933;50.754;11.508;2024-01-30T02:13:46;100915.91;;;-0.81;100.00
21545;BME280;10933;50.754;11.508;2024-01-30T02:16:12;100923.00;;;-0.72;100.00
21545;BME280;10933;50.754;11.508;2024-01-30T02:18:38;100922.84;;;-0.70;100.00
21545;BME280;10933;50.754;11.508;2024-01-30T02:21:09;100912.50;;;-0.64;100.00
21545;BME280;10933;50.754;11.508;2024-01-30T02:23:35;100899.00;;;-0.70;100.00
21545;BME280;10933;50.754;11.508;2024-01-30T02:26:01;100896.22;;;-0.69;100.00
21545;BME280;10933;50.754;11.508;2024-01-30T02:28:27;100877.78;;;-0.61;100.00
21545;BME280;10933;50.754;11.508;2024-01-30T02:30:53;100874.63;;;-0.74;100.00
21545;BME280;10933;50.754;11.508;2024-01-30T02:33:19;100878.75;;;-0.62;100.00
21545;BME280;10933;50.754;11.508;2024-01-30T02:35:48;100873.88;;;-0.66;100.00
21545;BME280;10933;50.754;11.508;2024-01-30T02:38:15;100872.66;;;-0.72;100.00
21545;BME280;10933;50.754;11.508;2024-01-30T02:40:41;100856.91;;;-0.73;100.00
21545;BME280;10933;50.754;11.508;2024-01-30T02:43:07;100847.44;;;-0.76;100.00
21545;BME280;10933;50.754;11.508;2024-01-30T02:45:33;100846.16;;;-0.72;100.00
21545;BME280;10933;50.754;11.508;2024-01-30T02:47:59;100854.78;;;-0.70;100.00
21545;BME280;10933;50.754;11.508;2024-01-30T02:50:25;100849.50;;;-0.70;100.00
21545;BME280;10933;50.754;11.508;2024-01-30T02:52:51;100848.88;;;-0.64;100.00
21545;BME280;10933;50.754;11.508;2024-01-30T02:55:18;100841.94;;;-0.65;100.00
21545;BME280;10933;50.754;11.508;2024-01-30T02:57:44;100838.38;;;-0.73;100.00
21545;BME280;10933;50.754;11.508;2024-01-30T03:00:10;100853.44;;;-0.74;100.00
21545;BME280;10933;50.754;11.508;2024-01-30T03:02:37;100851.00;;;-1.04;100.00
21545;BME280;10933;50.754;11.508;2024-01-30T03:05:05;100845.44;;;-1.01;100.00
21545;BME280;10933;50.754;11.508;2024-01-30T03:07:31;100848.34;;;-1.04;100.00
21545;BME280;10933;50.754;11.508;2024-01-30T03:09:57;100840.41;;;-1.04;100.00
21545;BME280;10933;50.754;11.508;2024-01-30T03:12:23;100843.22;;;-1.06;100.00
21545;BME280;10933;50.754;11.508;2024-01-30T03:14:49;100854.16;;;-1.38;100.00
21545;BME280;10933;50.754;11.508;2024-01-30T03:17:16;100847.63;;;-1.53;100.00
21545;BME280;10933;50.754;11.508;2024-01-30T03:19:42;100842.19;;;-1.42;100.00
21545;BME280;10933;50.754;11.508;2024-01-30T03:22:08;100829.63;;;-1.40;100.00
21545;BME280;10933;50.754;11.508;2024-01-30T03:24:34;100825.84;;;-1.28;100.00
21545;BME280;10933;50.754;11.508;2024-01-30T03:27:00;100836.34;;;-1.36;100.00
21545;BME280;10933;50.754;11.508;2024-01-30T03:29:27;100822.13;;;-1.35;100.00
21545;BME280;10933;50.754;11.508;2024-01-30T03:31:53;100819.31;;;-1.33;100.00
21545;BME280;10933;50.754;11.508;2024-01-30T03:34:19;100813.13;;;-1.14;100.00
21545;BME280;10933;50.754;11.508;2024-01-30T03:36:45;100811.47;;;-1.15;100.00
21545;BME280;10933;50.754;11.508;2024-01-30T03:39:11;100811.06;;;-1.21;100.00
21545;BME280;10933;50.754;11.508;2024-01-30T03:41:37;100815.00;;;-1.25;100.00
21545;BME280;10933;50.754;11.508;2024-01-30T03:44:03;100812.38;;;-1.34;100.00
21545;BME280;10933;50.754;11.508;2024-01-30T03:46:29;100807.31;;;-1.28;100.00
21545;BME280;10933;50.754;11.508;2024-01-30T03:48:55;100806.41;;;-1.46;100.00
21545;BME280;10933;50.754;11.508;2024-01-30T03:51:21;100814.03;;;-1.43;100.00
21545;BME280;10933;50.754;11.508;2024-01-30T03:53:48;100811.00;;;-1.48;100.00
21545;BME280;10933;50.754;11.508;2024-01-30T03:56:14;100807.09;;;-1.44;100.00
21545;BME280;10933;50.754;11.508;2024-01-30T03:58:40;100818.56;;;-1.63;100.00
21545;BME280;10933;50.754;11.508;2024-01-30T04:01:07;100812.44;;;-1.63;100.00
21545;BME280;10933;50.754;11.508;2024-01-30T04:03:33;100797.94;;;-1.59;100.00
21545;BME280;10933;50.754;11.508;2024-01-30T04:05:59;100804.59;;;-1.55;100.00
21545;BME280;10933;50.754;11.508;2024-01-30T04:08:25;100802.38;;;-1.50;100.00
21545;BME280;10933;50.754;11.508;2024-01-30T04:10:51;100797.63;;;-1.56;100.00
21545;BME280;10933;50.754;11.508;2024-01-30T04:13:17;100793.31;;;-1.57;100.00
21545;BME280;10933;50.754;11.508;2024-01-30T04:15:44;100792.88;;;-1.43;100.00
21545;BME280;10933;50.754;11.508;2024-01-30T04:18:10;100795.44;;;-1.61;100.00
21545;BME280;10933;50.754;11.508;2024-01-30T04:20:36;100794.53;;;-1.42;100.00
21545;BME280;10933;50.754;11.508;2024-01-30T04:23:02;100802.53;;;-1.61;100.00
21545;BME280;10933;50.754;11.508;2024-01-30T04:25:29;100801.09;;;-1.46;100.00
21545;BME280;10933;50.754;11.508;2024-01-30T04:27:55;100797.41;;;-1.72;100.00
21545;BME280;10933;50.754;11.508;2024-01-30T04:30:21;100806.00;;;-1.70;100.00
21545;BME280;10933;50.754;11.508;2024-01-30T04:32:47;100803.22;;;-1.59;100.00
21545;BME280;10933;50.754;11.508;2024-01-30T04:35:13;100806.69;;;-1.59;100.00
21545;BME280;10933;50.754;11.508;2024-01-30T04:37:39;100803.50;;;-1.62;100.00
21545;BME280;10933;50.754;11.508;2024-01-30T04:40:06;100806.16;;;-1.72;100.00
21545;BME280;10933;50.754;11.508;2024-01-30T04:42:32;100801.69;;;-1.71;100.00
21545;BME280;10933;50.754;11.508;2024-01-30T04:44:58;100811.16;;;-1.69;100.00
21545;BME280;10933;50.754;11.508;2024-01-30T04:47:24;100809.38;;;-1.88;100.00
21545;BME280;10933;50.754;11.508;2024-01-30T04:49:52;100808.25;;;-1.75;100.00
21545;BME280;10933;50.754;11.508;2024-01-30T04:52:18;100813.69;;;-1.87;100.00
21545;BME280;10933;50.754;11.508;2024-01-30T04:54:44;100813.25;;;-1.92;100.00
21545;BME280;10933;50.754;11.508;2024-01-30T04:57:10;100812.28;;;-1.91;100.00
21545;BME280;10933;50.754;11.508;2024-01-30T04:59:38;100818.53;;;-1.92;100.00
21545;BME280;10933;50.754;11.508;2024-01-30T05:02:04;100821.91;;;-1.90;100.00
21545;BME280;10933;50.754;11.508;2024-01-30T05:04:30;100824.13;;;-1.85;100.00
21545;BME280;10933;50.754;11.508;2024-01-30T05:06:56;100824.41;;;-1.98;100.00
21545;BME280;10933;50.754;11.508;2024-01-30T05:09:22;100826.22;;;-1.89;100.00
21545;BME280;10933;50.754;11.508;2024-01-30T05:11:48;100819.97;;;-1.88;100.00
21545;BME280;10933;50.754;11.508;2024-01-30T05:14:14;100816.34;;;-1.87;100.00
21545;BME280;10933;50.754;11.508;2024-01-30T05:16:43;100808.25;;;-1.75;100.00
21545;BME280;10933;50.754;11.508;2024-01-30T05:19:13;100811.06;;;-1.77;100.00
21545;BME280;10933;50.754;11.508;2024-01-30T05:21:40;100802.97;;;-1.85;100.00
21545;BME280;10933;50.754;11.508;2024-01-30T05:24:06;100809.34;;;-1.78;100.00
21545;BME280;10933;50.754;11.508;2024-01-30T05:26:33;100803.81;;;-1.85;100.00
21545;BME280;10933;50.754;11.508;2024-01-30T05:28:59;100803.38;;;-1.70;100.00
21545;BME280;10933;50.754;11.508;2024-01-30T05:31:25;100801.41;;;-1.68;100.00
21545;BME280;10933;50.754;11.508;2024-01-30T05:33:53;100810.47;;;-1.81;100.00
21545;BME280;10933;50.754;11.508;2024-01-30T05:36:19;100811.59;;;-1.83;100.00
21545;BME280;10933;50.754;11.508;2024-01-30T05:38:45;100811.44;;;-1.91;100.00
21545;BME280;10933;50.754;11.508;2024-01-30T05:41:11;100807.97;;;-1.82;100.00
21545;BME280;10933;50.754;11.508;2024-01-30T05:43:37;100815.75;;;-1.81;100.00
21545;BME280;10933;50.754;11.508;2024-01-30T05:46:03;100815.91;;;-1.72;100.00
21545;BME280;10933;50.754;11.508;2024-01-30T05:48:29;100819.09;;;-1.69;100.00
21545;BME280;10933;50.754;11.508;2024-01-30T05:50:55;100814.94;;;-1.81;100.00
21545;BME280;10933;50.754;11.508;2024-01-30T05:53:22;100812.72;;;-1.76;100.00
21545;BME280;10933;50.754;11.508;2024-01-30T05:55:48;100824.53;;;-1.70;100.00
21545;BME280;10933;50.754;11.508;2024-01-30T05:58:14;100817.72;;;-1.83;100.00
21545;BME280;10933;50.754;11.508;2024-01-30T06:00:40;100826.19;;;-1.79;100.00
21545;BME280;10933;50.754;11.508;2024-01-30T06:03:07;100828.44;;;-1.94;100.00
21545;BME280;10933;50.754;11.508;2024-01-30T06:05:33;100833.44;;;-1.91;100.00
21545;BME280;10933;50.754;11.508;2024-01-30T06:07:59;100834.16;;;-1.98;100.00
21545;BME280;10933;50.754;11.508;2024-01-30T06:10:25;100823.97;;;-1.93;100.00
21545;BME280;10933;50.754;11.508;2024-01-30T06:12:51;100824.69;;;-2.01;100.00
21545;BME280;10933;50.754;11.508;2024-01-30T06:15:17;100815.50;;;-1.97;100.00
21545;BME280;10933;50.754;11.508;2024-01-30T06:17:43;100825.81;;;-1.74;100.00
21545;BME280;10933;50.754;11.508;2024-01-30T06:20:09;100820.50;;;-1.94;100.00
21545;BME280;10933;50.754;11.508;2024-01-30T06:22:36;100818.53;;;-1.92;100.00
21545;BME280;10933;50.754;11.508;2024-01-30T06:25:02;100818.28;;;-1.89;100.00
21545;BME280;10933;50.754;11.508;2024-01-30T06:27:28;100819.69;;;-1.85;100.00
21545;BME280;10933;50.754;11.508;2024-01-30T06:29:54;100813.00;;;-1.89;100.00
21545;BME280;10933;50.754;11.508;2024-01-30T06:32:20;100816.34;;;-1.87;100.00
21545;BME280;10933;50.754;11.508;2024-01-30T06:34:47;100815.38;;;-1.86;100.00
21545;BME280;10933;50.754;11.508;2024-01-30T06:37:13;100814.38;;;-1.75;100.00
21545;BME280;10933;50.754;11.508;2024-01-30T06:39:39;100819.38;;;-1.91;100.00
21545;BME280;10933;50.754;11.508;2024-01-30T06:42:05;100812.72;;;-1.86;100.00
21545;BME280;10933;50.754;11.508;2024-01-30T06:44:31;100820.06;;;-1.80;100.00
21545;BME280;10933;50.754;11.508;2024-01-30T06:46:57;100814.94;;;-1.81;100.00
21545;BME280;10933;50.754;11.508;2024-01-30T06:49:23;100817.03;;;-1.85;100.00
21545;BME280;10933;50.754;11.508;2024-01-30T06:51:49;100823.56;;;-1.79;100.00
21545;BME280;10933;50.754;11.508;2024-01-30T06:54:15;100825.81;;;-1.84;100.00
21545;BME280;10933;50.754;11.508;2024-01-30T06:56:41;100819.97;;;-1.88;100.00
21545;BME280;10933;50.754;11.508;2024-01-30T06:59:08;100817.28;;;-1.78;100.00
21545;BME280;10933;50.754;11.508;2024-01-30T07:01:34;100809.78;;;-1.83;100.00
21545;BME280;10933;50.754;11.508;2024-01-30T07:04:00;100807.81;;;-1.61;100.00
21545;BME280;10933;50.754;11.508;2024-01-30T07:06:26;100807.38;;;-1.57;100.00
21545;BME280;10933;50.754;11.508;2024-01-30T07:08:52;100803.31;;;-1.41;100.00
21545;BME280;10933;50.754;11.508;2024-01-30T07:11:20;100809.03;;;-1.46;100.00
21545;BME280;10933;50.754;11.508;2024-01-30T07:13:48;100798.16;;;-1.33;100.00
21545;BME280;10933;50.754;11.508;2024-01-30T07:16:14;100795.63;;;-1.25;100.00
21545;BME280;10933;50.754;11.508;2024-01-30T07:18:41;100795.34;;;-1.32;100.00
21545;BME280;10933;50.754;11.508;2024-01-30T07:21:07;100798.50;;;-1.19;100.00
21545;BME280;10933;50.754;11.508;2024-01-30T07:23:33;100802.44;;;-1.23;100.00
21545;BME280;10933;50.754;11.508;2024-01-30T07:26:03;100802.84;;;-1.17;100.00
21545;BME280;10933;50.754;11.508;2024-01-30T07:28:29;100804.78;;;-1.20;100.00
21545;BME280;10933;50.754;11.508;2024-01-30T07:30:56;100804.97;;;-1.31;100.00
21545;BME280;10933;50.754;11.508;2024-01-30T07:33:22;100812.66;;;-1.47;100.00
21545;BME280;10933;50.754;11.508;2024-01-30T07:35:48;100818.75;;;-1.27;100.00
21545;BME280;10933;50.754;11.508;2024-01-30T07:38:14;100828.75;;;-1.11;100.00
21545;BME280;10933;50.754;11.508;2024-01-30T07:40:40;100826.19;;;-1.03;100.00
21545;BME280;10933;50.754;11.508;2024-01-30T07:43:07;100834.03;;;-1.11;100.00
21545;BME280;10933;50.754;11.508;2024-01-30T07:45:34;100833.28;;;-0.94;100.00
21545;BME280;10933;50.754;11.508;2024-01-30T07:48:00;100839.28;;;-1.02;100.00
21545;BME280;10933;50.754;11.508;2024-01-30T07:50:26;100849.03;;;-1.02;100.00
21545;BME280;10933;50.754;11.508;2024-01-30T07:52:52;100846.22;;;-0.91;100.00
21545;BME280;10933;50.754;11.508;2024-01-30T07:55:23;100846.72;;;-0.78;100.00
21545;BME280;10933;50.754;11.508;2024-01-30T07:57:52;100851.94;;;-0.58;100.00
21545;BME280;10933;50.754;11.508;2024-01-30T08:00:20;100851.09;;;-0.49;100.00
21545;BME280;10933;50.754;11.508;2024-01-30T08:02:47;100856.47;;;-0.41;100.00
21545;BME280;10933;50.754;11.508;2024-01-30T08:05:13;100856.34;;;-0.22;100.00
21545;BME280;10933;50.754;11.508;2024-01-30T08:07:41;100864.94;;;0.08;100.00
21545;BME280;10933;50.754;11.508;2024-01-30T08:10:08;100865.47;;;-0.07;100.00
21545;BME280;10933;50.754;11.508;2024-01-30T08:12:35;100866.16;;;-0.05;100.00
21545;BME280;10933;50.754;11.508;2024-01-30T08:15:01;100871.59;;;0.12;100.00
21545;BME280;10933;50.754;11.508;2024-01-30T08:17:27;100876.44;;;-0.02;100.00
21545;BME280;10933;50.754;11.508;2024-01-30T08:19:53;100875.34;;;0.19;100.00
21545;BME280;10933;50.754;11.508;2024-01-30T08:22:19;100876.31;;;0.18;100.00
21545;BME280;10933;50.754;11.508;2024-01-30T08:24:45;100866.56;;;0.80;100.00
21545;BME280;10933;50.754;11.508;2024-01-30T08:27:11;100884.75;;;0.75;100.00
21545;BME280;10933;50.754;11.508;2024-01-30T08:29:38;100875.00;;;1.27;100.00
21545;BME280;10933;50.754;11.508;2024-01-30T08:32:05;100881.66;;;1.73;100.00
21545;BME280;10933;50.754;11.508;2024-01-30T08:34:31;100888.38;;;1.94;100.00
21545;BME280;10933;50.754;11.508;2024-01-30T08:36:57;100882.47;;;2.65;100.00
21545;BME280;10933;50.754;11.508;2024-01-30T08:39:24;100898.59;;;2.88;100.00
21545;BME280;10933;50.754;11.508;2024-01-30T08:41:50;100902.44;;;2.45;100.00
21545;BME280;10933;50.754;11.508;2024-01-30T08:44:16;100903.44;;;2.52;100.00
21545;BME280;10933;50.754;11.508;2024-01-30T08:46:46;100917.03;;;2.08;100.00
21545;BME280;10933;50.754;11.508;2024-01-30T08:49:13;100925.09;;;2.65;100.00
21545;BME280;10933;50.754;11.508;2024-01-30T08:51:39;100926.09;;;2.72;100.00
21545;BME280;10933;50.754;11.508;2024-01-30T08:54:06;100930.44;;;2.57;100.00
21545;BME280;10933;50.754;11.508;2024-01-30T08:56:32;100949.06;;;2.57;100.00
21545;BME280;10933;50.754;11.508;2024-01-30T08:58:58;100949.91;;;2.74;100.00
21545;BME280;10933;50.754;11.508;2024-01-30T09:01:25;100953.41;;;2.66;100.00
21545;BME280;10933;50.754;11.508;2024-01-30T09:03:52;100955.72;;;2.61;100.00
21545;BME280;10933;50.754;11.508;2024-01-30T09:06:18;100958.41;;;2.61;100.00
21545;BME280;10933;50.754;11.508;2024-01-30T09:08:44;100966.06;;;2.72;100.00
21545;BME280;10933;50.754;11.508;2024-01-30T09:11:11;100971.38;;;2.64;100.00
21545;BME280;10933;50.754;11.508;2024-01-30T09:13:38;100966.22;;;2.79;100.00
21545;BME280;10933;50.754;11.508;2024-01-30T09:16:04;100968.09;;;2.94;100.00
21545;BME280;10933;50.754;11.508;2024-01-30T09:18:31;100976.72;;;3.21;100.00
21545;BME280;10933;50.754;11.508;2024-01-30T09:20:57;100988.38;;;3.28;100.00
21545;BME280;10933;50.754;11.508;2024-01-30T09:23:23;100998.91;;;2.97;100.00
21545;BME280;10933;50.754;11.508;2024-01-30T09:25:50;100999.34;;;3.49;100.00
21545;BME280;10933;50.754;11.508;2024-01-30T09:28:17;101012.16;;;3.70;100.00
21545;BME280;10933;50.754;11.508;2024-01-30T09:30:44;101023.22;;;4.77;100.00
21545;BME280;10933;50.754;11.508;2024-01-30T09:33:10;101044.44;;;5.01;100.00
21545;BME280;10933;50.754;11.508;2024-01-30T09:35:36;101063.63;;;4.42;100.00
21545;BME280;10933;50.754;11.508;2024-01-30T09:38:03;101068.59;;;4.14;100.00
21545;BME280;10933;50.754;11.508;2024-01-30T09:40:29;101087.47;;;5.14;100.00
21545;BME280;10933;50.754;11.508;2024-01-30T09:42:55;101088.75;;;6.02;100.00
21545;BME280;10933;50.754;11.508;2024-01-30T09:45:25;101113.03;;;5.63;100.00
21545;BME280;10933;50.754;11.508;2024-01-30T09:47:52;101111.19;;;5.63;100.00
21545;BME280;10933;50.754;11.508;2024-01-30T09:50:20;101124.69;;;5.47;100.00
21545;BME280;10933;50.754;11.508;2024-01-30T09:52:47;101117.66;;;5.83;100.00
21545;BME280;10933;50.754;11.508;2024-01-30T09:55:13;101123.75;;;5.40;100.00
21545;BME280;10933;50.754;11.508;2024-01-30T09:57:41;101122.31;;;5.52;100.00
21545;BME280;10933;50.754;11.508;2024-01-30T10:00:07;101112.78;;;5.72;100.00
21545;BME280;10933;50.754;11.508;2024-01-30T10:02:35;101128.47;;;6.13;100.00
21545;BME280;10933;50.754;11.508;2024-01-30T10:05:02;101120.44;;;6.42;100.00
21545;BME280;10933;50.754;11.508;2024-01-30T10:07:29;101124.91;;;6.35;100.00
21545;BME280;10933;50.754;11.508;2024-01-30T10:09:56;101132.19;;;6.27;100.00
21545;BME280;10933;50.754;11.508;2024-01-30T10:12:25;101119.13;;;6.09;100.00
21545;BME280;10933;50.754;11.508;2024-01-30T10:14:52;101120.34;;;6.21;100.00
21545;BME280;10933;50.754;11.508;2024-01-30T10:17:18;101121.66;;;6.25;100.00
21545;BME280;10933;50.754;11.508;2024-01-30T10:19:47;101119.88;;;6.32;100.00
21545;BME280;10933;50.754;11.508;2024-01-30T10:22:13;101112.16;;;6.88;100.00
21545;BME280;10933;50.754;11.508;2024-01-30T10:24:40;101120.41;;;6.72;100.00
21545;BME280;10933;50.754;11.508;2024-01-30T10:27:06;101115.91;;;6.58;100.00
21545;BME280;10933;50.754;11.508;2024-01-30T10:29:32;101105.47;;;6.63;100.00
21545;BME280;10933;50.754;11.508;2024-01-30T10:32:03;101097.34;;;6.41;100.00
21545;BME280;10933;50.754;11.508;2024-01-30T10:34:29;101100.56;;;7.02;100.00
21545;BME280;10933;50.754;11.508;2024-01-30T10:37:10;101111.53;;;6.86;100.00
21545;BME280;10933;50.754;11.508;2024-01-30T10:39:39;101106.34;;;6.70;100.00
21545;BME280;10933;50.754;11.508;2024-01-30T10:42:08;101105.69;;;6.83;100.00
21545;BME280;10933;50.754;11.508;2024-01-30T10:47:12;101111.22;;;7.60;100.00
21545;BME280;10933;50.754;11.508;2024-01-30T10:49:41;101115.16;;;8.41;100.00
21545;BME280;10933;50.754;11.508;2024-01-30T10:52:09;101115.25;;;8.26;100.00
21545;BME280;10933;50.754;11.508;2024-01-30T10:54:37;101108.69;;;8.01;100.00
21545;BME280;10933;50.754;11.508;2024-01-30T10:57:04;101121.56;;;8.40;100.00
21545;BME280;10933;50.754;11.508;2024-01-30T10:59:31;101106.97;;;8.63;100.00
21545;BME280;10933;50.754;11.508;2024-01-30T11:01:58;101112.56;;;7.71;100.00
21545;BME280;10933;50.754;11.508;2024-01-30T11:04:25;101117.25;;;8.18;100.00
21545;BME280;10933;50.754;11.508;2024-01-30T11:06:51;101113.09;;;7.59;100.00
21545;BME280;10933;50.754;11.508;2024-01-30T11:09:18;101118.97;;;7.70;100.00
21545;BME280;10933;50.754;11.508;2024-01-30T11:11:58;101114.38;;;7.21;100.00
21545;BME280;10933;50.754;11.508;2024-01-30T11:14:26;101109.72;;;6.93;100.00
21545;BME280;10933;50.754;11.508;2024-01-30T11:16:56;101117.59;;;7.52;100.00
21545;BME280;10933;50.754;11.508;2024-01-30T11:19:26;101108.38;;;7.40;100.00
21545;BME280;10933;50.754;11.508;2024-01-30T11:21:55;101109.75;;;7.36;100.00
21545;BME280;10933;50.754;11.508;2024-01-30T11:24:23;101108.44;;;7.25;100.00
21545;BME280;10933;50.754;11.508;2024-01-30T11:26:59;101090.22;;;7.42;100.00
21545;BME280;10933;50.754;11.508;2024-01-30T11:29:28;101098.81;;;7.80;100.00
21545;BME280;10933;50.754;11.508;2024-01-30T11:31:56;101096.09;;;8.08;100.00
21545;BME280;10933;50.754;11.508;2024-01-30T11:34:23;101090.94;;;7.79;100.00
21545;BME280;10933;50.754;11.508;2024-01-30T11:36:56;101087.56;;;7.49;100.00
21545;BME280;10933;50.754;11.508;2024-01-30T11:39:26;101093.19;;;8.03;100.00
21545;BME280;10933;50.754;11.508;2024-01-30T11:41:53;101080.00;;;7.52;100.00
21545;BME280;10933;50.754;11.508;2024-01-30T11:44:20;101075.03;;;7.77;100.00
21545;BME280;10933;50.754;11.508;2024-01-30T11:46:50;101070.19;;;8.29;100.00
21545;BME280;10933;50.754;11.508;2024-01-30T11:49:17;101073.59;;;8.50;100.00
21545;BME280;10933;50.754;11.508;2024-01-30T11:51:49;101079.56;;;8.05;100.00
21545;BME280;10933;50.754;11.508;2024-01-30T11:54:16;101071.84;;;8.30;100.00
21545;BME280;10933;50.754;11.508;2024-01-30T11:56:42;101064.81;;;8.29;100.00
21545;BME280;10933;50.754;11.508;2024-01-30T11:59:09;101058.47;;;8.08;100.00
21545;BME280;10933;50.754;11.508;2024-01-30T12:01:36;101061.72;;;7.97;100.00
21545;BME280;10933;50.754;11.508;2024-01-30T12:04:02;101052.09;;;7.53;100.00
21545;BME280;10933;50.754;11.508;2024-01-30T12:06:29;101051.66;;;8.06;100.00
21545;BME280;10933;50.754;11.508;2024-01-30T12:08:59;101051.22;;;8.02;100.00
21545;BME280;10933;50.754;11.508;2024-01-30T12:11:25;101048.06;;;7.92;100.00
21545;BME280;10933;50.754;11.508;2024-01-30T12:13:53;101042.75;;;8.05;100.00
21545;BME280;10933;50.754;11.508;2024-01-30T12:16:20;101036.28;;;7.93;100.00
21545;BME280;10933;50.754;11.508;2024-01-30T12:18:46;101040.00;;;8.33;100.00
21545;BME280;10933;50.754;11.508;2024-01-30T12:21:15;101038.28;;;8.25;100.00
21545;BME280;10933;50.754;11.508;2024-01-30T12:23:42;101044.53;;;8.67;100.00
21545;BME280;10933;50.754;11.508;2024-01-30T12:26:08;101044.84;;;9.32;100.00
21545;BME280;10933;50.754;11.508;2024-01-30T12:28:34;101044.44;;;9.28;100.00
21545;BME280;10933;50.754;11.508;2024-01-30T12:31:04;101055.63;;;9.58;100.00
21545;BME280;10933;50.754;11.508;2024-01-30T12:33:30;101053.97;;;9.44;100.00